Time;durP1;ratioP1;P1;durP2;ratioP2;P2;SDS_P1;SDS_P2;PMS_P1;PMS_P2;Temp;Humidity;BMP_temperature;BMP_pressure;BME280_temperature;BME280_humidity;BME280_pressure;Samples;Min_cycle;Max_cycle;Signal;HPM_P1;HPM_P2
2022/07/30 00:01:45;;;;;;;6.88;3.55;;;19.60;99.90;;;;;;7342435;19;109277;-80
2022/07/30 00:04:12;;;;;;;9.23;3.80;;;19.60;99.90;;;;;;7348573;19;111062;-81
2022/07/30 00:06:39;;;;;;;9.32;4.68;;;19.50;99.90;;;;;;7340644;19;109735;-81
2022/07/30 00:09:06;;;;;;;7.88;4.15;;;19.50;99.90;;;;;;7342190;19;111879;-80
2022/07/30 00:11:34;;;;;;;8.25;4.28;;;19.50;99.90;;;;;;7341474;19;111024;-80
2022/07/30 00:14:01;;;;;;;7.97;3.80;;;19.50;99.90;;;;;;7342570;19;111626;-81
2022/07/30 00:16:28;;;;;;;10.02;3.95;;;19.50;99.90;;;;;;7342629;19;110021;-81
2022/07/30 00:19:03;;;;;;;7.30;3.80;;;19.50;99.90;;;;;;7342963;19;111278;-81
2022/07/30 00:21:32;;;;;;;11.15;4.32;;;19.40;99.90;;;;;;7342791;19;109463;-81
2022/07/30 00:24:07;;;;;;;9.85;4.10;;;19.40;99.90;;;;;;7343141;19;110490;-80
2022/07/30 00:26:34;;;;;;;9.45;4.55;;;19.30;99.90;;;;;;7347365;19;111505;-81
2022/07/30 00:29:01;;;;;;;10.40;4.50;;;19.30;99.90;;;;;;7342503;19;109823;-80
2022/07/30 00:31:28;;;;;;;9.32;4.30;;;19.30;99.90;;;;;;7342425;19;112049;-80
2022/07/30 00:33:55;;;;;;;12.55;4.68;;;19.30;99.90;;;;;;7341162;19;109518;-81
2022/07/30 00:36:23;;;;;;;11.27;4.45;;;19.20;99.90;;;;;;7342078;19;110014;-81
2022/07/30 00:38:50;;;;;;;10.65;4.40;;;19.20;99.90;;;;;;7342027;19;110215;-80
2022/07/30 00:41:17;;;;;;;7.97;3.90;;;19.20;99.90;;;;;;7342130;19;110126;-80
2022/07/30 00:43:44;;;;;;;8.45;4.20;;;19.20;99.90;;;;;;7342350;19;113436;-81
2022/07/30 00:46:11;;;;;;;10.95;4.55;;;19.10;99.90;;;;;;7342143;19;111227;-81
2022/07/30 00:48:38;;;;;;;11.57;4.50;;;19.10;99.90;;;;;;7344611;19;110193;-81
2022/07/30 00:51:05;;;;;;;9.30;4.35;;;19.00;99.90;;;;;;7342500;19;110445;-81
2022/07/30 00:53:33;;;;;;;13.40;4.97;;;19.10;99.90;;;;;;7341710;19;109408;-81
2022/07/30 00:56:01;;;;;;;15.63;5.45;;;19.00;99.90;;;;;;7339705;19;110025;-80
2022/07/30 00:58:28;;;;;;;10.07;5.60;;;18.90;99.90;;;;;;7339819;19;113769;-82
2022/07/30 01:00:55;;;;;;;6.82;4.65;;;18.90;99.90;;;;;;7342100;19;109849;-81
2022/07/30 01:03:23;;;;;;;12.48;5.05;;;18.80;99.90;;;;;;7341324;19;109848;-81
2022/07/30 01:05:50;;;;;;;10.73;4.93;;;18.80;99.90;;;;;;7341568;19;110101;-81
2022/07/30 01:08:17;;;;;;;8.32;4.97;;;18.80;99.90;;;;;;7344750;19;109549;-81
2022/07/30 01:10:44;;;;;;;8.35;5.07;;;18.80;99.90;;;;;;7340267;19;111575;-81
2022/07/30 01:13:11;;;;;;;11.23;5.47;;;18.80;99.90;;;;;;7341063;19;109721;-81
2022/07/30 01:15:39;;;;;;;10.30;5.50;;;18.80;99.90;;;;;;7341359;19;109560;-80
2022/07/30 01:18:10;;;;;;;8.27;5.60;;;18.70;99.90;;;;;;7340591;19;110236;-81
2022/07/30 01:20:56;;;;;;;8.93;4.82;;;18.70;99.90;;;;;;7341539;19;109338;-81
2022/07/30 01:23:40;;;;;;;6.63;5.10;;;18.70;99.90;;;;;;7341237;19;109560;-81
2022/07/30 01:26:13;;;;;;;10.10;5.82;;;18.60;99.90;;;;;;7339683;19;111197;-81
2022/07/30 01:28:44;;;;;;;10.10;6.05;;;18.60;99.90;;;;;;7341363;19;109338;-81
2022/07/30 01:31:13;;;;;;;7.60;4.93;;;18.60;99.90;;;;;;7346014;19;109782;-80
2022/07/30 01:33:44;;;;;;;11.32;6.30;;;18.50;99.90;;;;;;7339814;19;109850;-80
2022/07/30 01:36:16;;;;;;;11.63;5.80;;;18.60;99.90;;;;;;7338536;19;109448;-81
2022/07/30 01:38:44;;;;;;;12.23;6.10;;;18.60;99.90;;;;;;7340832;19;111493;-82
2022/07/30 01:41:14;;;;;;;9.30;6.57;;;18.50;99.90;;;;;;7340075;19;110393;-81
2022/07/30 01:43:42;;;;;;;12.57;5.38;;;18.40;99.90;;;;;;7339527;19;110378;-82
2022/07/30 01:46:10;;;;;;;9.80;5.57;;;18.40;99.90;;;;;;7339079;19;111239;-80
2022/07/30 01:48:39;;;;;;;8.93;5.50;;;18.30;99.90;;;;;;7341212;19;109622;-81
2022/07/30 01:51:10;;;;;;;16.67;6.57;;;18.30;99.90;;;;;;7340387;19;109568;-81
2022/07/30 01:53:40;;;;;;;17.48;6.70;;;18.30;99.90;;;;;;7345494;19;111184;-83
2022/07/30 01:56:10;;;;;;;12.63;6.35;;;18.20;99.90;;;;;;7338507;19;111145;-83
2022/07/30 01:58:39;;;;;;;11.95;6.63;;;18.20;99.90;;;;;;7340464;19;110401;-83
2022/07/30 02:01:06;;;;;;;11.18;5.95;;;18.10;99.90;;;;;;7339844;19;110302;-82
2022/07/30 02:03:34;;;;;;;11.65;6.88;;;18.10;99.90;;;;;;7338775;19;110538;-82
2022/07/30 02:06:10;;;;;;;10.65;5.97;;;18.10;99.90;;;;;;7339964;19;111500;-82
2022/07/30 02:08:44;;;;;;;9.32;6.70;;;18.10;99.90;;;;;;7338946;19;109475;-83
2022/07/30 02:12:27;;;;;;;13.63;7.47;;;18.10;99.90;;;;;;7338786;19;109935;-83
2022/07/30 02:14:11;;;;;;;12.00;6.70;;;18.10;99.90;;;;;;7336800;19;112504;-83
2022/07/30 02:16:41;;;;;;;17.08;7.32;;;18.10;99.90;;;;;;7345776;19;109574;-83
2022/07/30 02:19:14;;;;;;;12.98;7.03;;;18.10;99.90;;;;;;7339321;19;111081;-82
2022/07/30 02:22:02;;;;;;;14.02;6.63;;;18.10;99.90;;;;;;7337445;19;109331;-82
2022/07/30 02:24:35;;;;;;;10.38;7.03;;;18.00;99.90;;;;;;7339574;19;110505;-83
2022/07/30 02:27:08;;;;;;;11.57;6.78;;;17.90;99.90;;;;;;7339125;19;110108;-82
2022/07/30 02:29:37;;;;;;;13.38;6.32;;;17.90;99.90;;;;;;7339484;19;109297;-82
2022/07/30 02:32:09;;;;;;;13.63;7.18;;;17.90;99.90;;;;;;7339014;19;111759;-82
2022/07/30 02:34:39;;;;;;;13.02;7.15;;;17.90;99.90;;;;;;7335601;19;111417;-82
2022/07/30 02:37:10;;;;;;;10.27;6.45;;;17.90;99.90;;;;;;7338766;19;110579;-83
2022/07/30 02:39:38;;;;;;;12.82;6.82;;;17.80;99.90;;;;;;7343775;19;110062;-82
2022/07/30 02:42:08;;;;;;;9.00;7.00;;;17.80;99.90;;;;;;7338128;19;109388;-81
2022/07/30 02:44:37;;;;;;;12.10;7.63;;;17.80;99.90;;;;;;7339347;19;110122;-82
2022/07/30 02:47:05;;;;;;;8.35;7.38;;;17.80;99.90;;;;;;7338073;19;114121;-82
2022/07/30 02:49:34;;;;;;;10.00;7.88;;;17.80;99.90;;;;;;7337761;19;110402;-82
2022/07/30 02:52:02;;;;;;;8.40;7.18;;;17.80;99.90;;;;;;7339204;19;110467;-82
2022/07/30 02:54:31;;;;;;;9.82;6.85;;;17.70;99.90;;;;;;7338833;19;113901;-82
2022/07/30 02:57:00;;;;;;;12.25;7.35;;;17.60;99.90;;;;;;7339617;19;109420;-81
2022/07/30 02:59:32;;;;;;;8.98;6.80;;;17.50;99.90;;;;;;7341731;19;111106;-81
2022/07/30 03:02:00;;;;;;;11.93;7.15;;;17.40;99.90;;;;;;7337848;19;109791;-82
2022/07/30 03:04:30;;;;;;;12.25;7.22;;;17.30;99.90;;;;;;7338128;19;110503;-81
2022/07/30 03:06:58;;;;;;;12.80;7.75;;;17.30;99.90;;;;;;7337447;19;110862;-81
2022/07/30 03:09:32;;;;;;;12.10;9.13;;;17.20;99.90;;;;;;7338572;19;109601;-82
2022/07/30 03:12:19;;;;;;;12.27;8.60;;;17.20;99.90;;;;;;7338039;19;111051;-82
2022/07/30 03:14:46;;;;;;;11.35;8.48;;;17.20;99.90;;;;;;7338034;19;110676;-81
2022/07/30 03:17:16;;;;;;;11.68;8.27;;;17.10;99.90;;;;;;7338223;19;111694;-81
2022/07/30 03:19:44;;;;;;;13.70;8.80;;;17.00;99.90;;;;;;7338014;19;110469;-81
2022/07/30 03:22:16;;;;;;;9.20;7.40;;;16.80;99.90;;;;;;7343614;19;112410;-81
2022/07/30 03:24:44;;;;;;;9.02;7.63;;;16.80;99.90;;;;;;7338238;19;109420;-81
2022/07/30 03:27:12;;;;;;;7.32;6.25;;;16.70;99.90;;;;;;7338139;19;114289;-82
2022/07/30 03:29:41;;;;;;;7.60;6.13;;;16.60;99.90;;;;;;7338332;19;109667;-81
2022/07/30 03:32:09;;;;;;;6.88;6.22;;;16.60;99.90;;;;;;7349214;19;109337;-82
2022/07/30 03:34:41;;;;;;;9.52;7.07;;;16.60;99.90;;;;;;7363372;19;111910;-82
2022/07/30 03:37:11;;;;;;;8.27;7.47;;;16.70;99.90;;;;;;7369465;19;109521;-83
2022/07/30 03:39:40;;;;;;;8.75;7.95;;;16.70;99.90;;;;;;7367512;19;110089;-81
2022/07/30 03:42:08;;;;;;;7.30;6.53;;;16.60;99.90;;;;;;7365610;19;110845;-82
2022/07/30 03:44:36;;;;;;;10.10;7.55;;;16.60;99.90;;;;;;7372550;19;109928;-81
2022/07/30 03:47:05;;;;;;;13.35;7.57;;;16.50;99.90;;;;;;7363430;19;109196;-81
2022/07/30 03:49:33;;;;;;;10.75;8.35;;;16.50;99.90;;;;;;7356296;19;109311;-80
2022/07/30 03:52:01;;;;;;;10.77;8.65;;;16.60;99.90;;;;;;7345159;19;109682;-81
2022/07/30 03:54:32;;;;;;;10.02;9.02;;;16.50;99.90;;;;;;7344462;19;110104;-81
2022/07/30 03:57:03;;;;;;;10.23;8.00;;;16.30;99.90;;;;;;7346670;19;109739;-82
2022/07/30 03:59:31;;;;;;;9.43;7.53;;;16.20;99.90;;;;;;7345071;19;110526;-81
2022/07/30 04:02:01;;;;;;;8.55;6.97;;;16.20;99.90;;;;;;7346991;19;110499;-82
2022/07/30 04:04:33;;;;;;;7.90;7.20;;;16.20;99.90;;;;;;7345183;19;110188;-81
2022/07/30 04:07:00;;;;;;;7.57;6.88;;;16.30;99.90;;;;;;7351503;19;111780;-81
2022/07/30 04:09:27;;;;;;;8.48;7.72;;;16.30;99.90;;;;;;7347091;19;109771;-82
2022/07/30 04:11:54;;;;;;;9.77;7.88;;;16.30;99.90;;;;;;7343499;19;109935;-82
2022/07/30 04:14:21;;;;;;;9.57;7.85;;;16.30;99.90;;;;;;7341432;19;110175;-82
2022/07/30 04:17:02;;;;;;;9.85;7.65;;;16.40;99.90;;;;;;7343151;19;111986;-81
2022/07/30 04:19:45;;;;;;;8.35;7.30;;;16.40;99.90;;;;;;7341643;19;111190;-80
2022/07/30 04:22:15;;;;;;;15.75;7.43;;;16.40;99.90;;;;;;7342416;19;110132;-81
2022/07/30 04:24:44;;;;;;;11.57;8.27;;;16.40;99.90;;;;;;7343476;19;110794;-80
2022/07/30 04:27:12;;;;;;;23.65;10.57;;;16.30;99.90;;;;;;7342429;19;109805;-80
2022/07/30 04:29:40;;;;;;;10.93;9.20;;;16.40;99.90;;;;;;7346407;19;111222;-80
2022/07/30 04:32:08;;;;;;;14.32;9.45;;;16.30;99.90;;;;;;7342713;19;109730;-80
2022/07/30 04:34:35;;;;;;;16.13;9.13;;;16.20;99.90;;;;;;7338651;19;110556;-81
2022/07/30 04:37:02;;;;;;;14.38;9.90;;;16.20;99.90;;;;;;7346067;19;110216;-81
2022/07/30 04:39:30;;;;;;;12.23;10.35;;;16.30;99.90;;;;;;7349878;19;109803;-81
2022/07/30 04:41:57;;;;;;;12.63;11.23;;;16.30;99.90;;;;;;7344338;19;110494;-81
2022/07/30 04:44:24;;;;;;;18.67;11.93;;;16.40;99.90;;;;;;7343415;19;110744;-81
2022/07/30 04:46:51;;;;;;;17.75;12.65;;;16.30;99.90;;;;;;7342585;19;111314;-80
2022/07/30 04:49:20;;;;;;;14.80;12.48;;;16.30;99.90;;;;;;7340878;19;110883;-82
2022/07/30 04:51:48;;;;;;;13.75;11.60;;;16.20;99.90;;;;;;7346356;19;110584;-80
2022/07/30 04:54:16;;;;;;;22.77;16.58;;;16.20;99.90;;;;;;7340461;19;110406;-81
2022/07/30 04:56:48;;;;;;;31.23;16.42;;;16.10;99.90;;;;;;7343452;19;112192;-81
2022/07/30 04:59:27;;;;;;;18.20;14.23;;;16.00;99.90;;;;;;7342548;19;110522;-81
2022/07/30 05:01:57;;;;;;;16.42;13.60;;;16.00;99.90;;;;;;7340192;19;111207;-80
2022/07/30 05:04:26;;;;;;;21.85;17.05;;;16.10;99.90;;;;;;7338569;19;110347;-80
2022/07/30 05:06:55;;;;;;;19.90;14.88;;;16.10;99.90;;;;;;7339206;19;110699;-80
2022/07/30 05:09:23;;;;;;;31.38;17.98;;;16.10;99.90;;;;;;7336392;19;111200;-81
2022/07/30 05:11:54;;;;;;;21.48;17.10;;;16.10;99.90;;;;;;7343574;19;111158;-81
2022/07/30 05:14:23;;;;;;;16.50;14.75;;;16.00;99.90;;;;;;7339088;19;111566;-81
2022/07/30 05:16:51;;;;;;;21.05;15.45;;;16.10;99.90;;;;;;7336144;19;111668;-85
2022/07/30 05:19:19;;;;;;;18.80;15.73;;;16.20;99.90;;;;;;7335690;19;110765;-85
2022/07/30 05:21:47;;;;;;;27.27;16.65;;;16.40;99.90;;;;;;7337328;19;111730;-84
2022/07/30 05:24:14;;;;;;;23.05;16.95;;;16.50;99.90;;;;;;7338486;19;111959;-85
2022/07/30 05:26:41;;;;;;;28.10;17.75;;;16.60;99.90;;;;;;7338325;19;110447;-84
2022/07/30 05:29:08;;;;;;;33.33;18.30;;;16.70;99.90;;;;;;7336234;19;111103;-85
2022/07/30 05:31:45;;;;;;;27.88;18.70;;;16.80;99.90;;;;;;7338650;19;113623;-85
2022/07/30 05:34:12;;;;;;;27.60;19.20;;;16.90;99.90;;;;;;7340931;19;111234;-85
2022/07/30 05:36:41;;;;;;;32.47;19.70;;;17.10;99.90;;;;;;7337518;19;111852;-86
2022/07/30 05:39:08;;;;;;;27.27;19.75;;;17.20;99.90;;;;;;7338077;19;111856;-85
2022/07/30 05:41:35;;;;;;;33.50;21.27;;;17.30;99.90;;;;;;7337722;19;114065;-85
2022/07/30 05:44:03;;;;;;;29.58;21.25;;;17.30;99.90;;;;;;7335958;19;111782;-85
2022/07/30 05:46:30;;;;;;;29.48;22.33;;;17.40;99.90;;;;;;7336648;19;111947;-85
2022/07/30 05:48:57;;;;;;;34.42;23.73;;;17.50;99.90;;;;;;7335932;19;111349;-86
2022/07/30 05:51:24;;;;;;;28.88;22.48;;;17.60;99.90;;;;;;7335467;19;112886;-85
2022/07/30 05:53:51;;;;;;;33.10;23.95;;;17.70;99.90;;;;;;7337980;19;112262;-85
2022/07/30 05:56:18;;;;;;;27.50;21.02;;;17.80;99.90;;;;;;7337008;19;112701;-85
2022/07/30 05:58:45;;;;;;;31.63;23.00;;;17.80;99.90;;;;;;7337665;19;114695;-86
2022/07/30 06:01:12;;;;;;;30.17;21.80;;;18.00;99.90;;;;;;7334814;19;111931;-85
2022/07/30 06:03:39;;;;;;;25.02;19.63;;;18.10;99.90;;;;;;7335921;19;114398;-85
2022/07/30 06:06:07;;;;;;;27.63;20.30;;;18.20;99.90;;;;;;7335424;19;111836;-85
2022/07/30 06:08:34;;;;;;;25.70;20.27;;;18.30;99.90;;;;;;7335066;19;112939;-86
2022/07/30 06:11:02;;;;;;;27.60;19.48;;;18.40;99.90;;;;;;7337149;19;111763;-85
2022/07/30 06:13:29;;;;;;;35.40;20.58;;;18.40;99.90;;;;;;7334857;19;112110;-85
2022/07/30 06:15:56;;;;;;;27.13;18.92;;;18.50;99.90;;;;;;7336693;19;111473;-85
2022/07/30 06:18:23;;;;;;;26.48;19.52;;;18.60;99.90;;;;;;7341280;19;111845;-86
2022/07/30 06:20:52;;;;;;;26.80;20.00;;;18.70;99.90;;;;;;7335816;19;110722;-88
2022/07/30 06:23:20;;;;;;;22.95;18.15;;;18.80;99.90;;;;;;7334806;19;112335;-87
2022/07/30 06:25:48;;;;;;;26.27;19.33;;;18.90;99.90;;;;;;7336762;19;114731;-88
2022/07/30 06:28:17;;;;;;;23.75;18.88;;;19.00;99.90;;;;;;7336639;19;110769;-88
2022/07/30 06:31:03;;;;;;;21.17;17.83;;;19.10;99.90;;;;;;7338025;19;111468;-90
2022/07/30 06:33:30;;;;;;;22.45;17.40;;;19.30;99.90;;;;;;7339045;19;112250;-89
2022/07/30 06:35:57;;;;;;;21.95;16.55;;;19.30;99.90;;;;;;7336658;19;111551;-90
2022/07/30 06:38:24;;;;;;;19.40;15.73;;;19.40;99.90;;;;;;7339098;19;114805;-90
2022/07/30 06:40:52;;;;;;;23.27;16.08;;;19.60;99.90;;;;;;7344622;19;111216;-90
2022/07/30 06:43:20;;;;;;;24.17;17.20;;;19.70;99.90;;;;;;7340601;19;112670;-90
2022/07/30 06:45:47;;;;;;;19.40;14.35;;;19.80;99.90;;;;;;7340231;19;111347;-90
2022/07/30 06:48:14;;;;;;;19.30;13.75;;;19.90;99.90;;;;;;7339877;19;110141;-90
2022/07/30 06:50:41;;;;;;;18.05;12.88;;;20.00;99.90;;;;;;7337259;19;110686;-91
2022/07/30 06:53:09;;;;;;;23.05;12.45;;;20.00;99.90;;;;;;7337514;19;112182;-90
2022/07/30 06:55:36;;;;;;;17.85;12.65;;;20.10;99.90;;;;;;7339144;19;110498;-90
2022/07/30 06:58:03;;;;;;;23.52;12.57;;;20.10;99.90;;;;;;7339848;19;110599;-91
2022/07/30 07:00:30;;;;;;;18.48;12.30;;;20.10;99.90;;;;;;7338319;19;113040;-89
2022/07/30 07:02:57;;;;;;;15.43;9.07;;;20.10;99.90;;;;;;7344851;19;111613;-90
2022/07/30 07:05:27;;;;;;;33.85;11.93;;;20.20;99.90;;;;;;7340080;19;110352;-90
2022/07/30 07:07:54;;;;;;;13.68;9.20;;;20.30;99.90;;;;;;7341039;19;111619;-90
2022/07/30 07:10:26;;;;;;;20.30;12.55;;;20.40;99.90;;;;;;7346507;19;111306;-90
2022/07/30 07:12:53;;;;;;;22.45;9.30;;;20.40;99.90;;;;;;7344844;19;111812;-90
2022/07/30 07:15:21;;;;;;;11.93;6.82;;;20.50;99.90;;;;;;7346081;19;111020;-89
2022/07/30 07:18:03;;;;;;;12.40;5.25;;;20.60;99.90;;;;;;7347325;19;109709;-90
2022/07/30 07:20:31;;;;;;;8.07;4.22;;;20.70;99.90;;;;;;7345651;19;110160;-89
2022/07/30 07:22:58;;;;;;;4.55;3.83;;;20.80;99.90;;;;;;7353614;19;111261;-90
2022/07/30 07:25:27;;;;;;;9.90;5.55;;;20.80;99.90;;;;;;7347132;19;110131;-90
2022/07/30 07:27:54;;;;;;;11.07;5.18;;;20.90;99.90;;;;;;7349147;19;111599;-92
2022/07/30 07:30:42;;;;;;;5.60;3.10;;;21.10;99.90;;;;;;7348600;19;109190;-91
2022/07/30 07:33:11;;;;;;;5.07;2.20;;;21.20;99.90;;;;;;7348704;19;110414;-91
2022/07/30 07:35:41;;;;;;;10.38;1.83;;;21.30;99.90;;;;;;7347450;19;111781;-90
2022/07/30 07:38:17;;;;;;;8.00;2.50;;;21.30;99.90;;;;;;7347467;19;109761;-91
2022/07/30 07:40:45;;;;;;;6.95;2.50;;;21.50;99.90;;;;;;7348273;19;110593;-91
2022/07/30 07:43:13;;;;;;;7.07;1.75;;;21.60;99.90;;;;;;7348251;19;111482;-91
2022/07/30 07:45:44;;;;;;;8.50;1.65;;;21.70;99.90;;;;;;7353007;19;109300;-91
2022/07/30 07:48:11;;;;;;;7.13;1.63;;;21.60;99.90;;;;;;7347084;19;111245;-89
2022/07/30 07:50:39;;;;;;;5.53;2.08;;;21.50;99.90;;;;;;7347874;19;109317;-90
2022/07/30 07:53:06;;;;;;;5.22;1.70;;;21.50;99.90;;;;;;7344654;19;110455;-92
2022/07/30 07:55:33;;;;;;;6.43;1.90;;;21.50;99.90;;;;;;7348208;19;110128;-90
2022/07/30 07:58:01;;;;;;;8.45;1.90;;;21.50;99.90;;;;;;7348406;19;110100;-93
2022/07/30 08:00:28;;;;;;;6.25;1.95;;;21.60;99.90;;;;;;7346562;19;111723;-92
2022/07/30 08:02:55;;;;;;;8.30;1.92;;;21.60;99.90;;;;;;7345796;19;112011;-90
2022/07/30 08:05:22;;;;;;;6.85;1.50;;;21.60;99.90;;;;;;7344751;19;109542;-89
2022/07/30 08:07:50;;;;;;;5.40;1.80;;;21.70;99.90;;;;;;7351390;19;110202;-90
2022/07/30 08:10:17;;;;;;;5.05;1.50;;;21.90;99.90;;;;;;7342979;19;109271;-89
2022/07/30 08:12:44;;;;;;;7.85;1.88;;;21.90;99.90;;;;;;7344858;19;110398;-91
2022/07/30 08:15:12;;;;;;;7.38;1.70;;;22.00;99.90;;;;;;7344660;19;110409;-90
2022/07/30 08:17:41;;;;;;;4.57;1.20;;;21.90;99.90;;;;;;7344396;19;109255;-89
2022/07/30 08:20:10;;;;;;;4.00;1.65;;;22.00;99.90;;;;;;7343841;19;110827;-90
2022/07/30 08:22:37;;;;;;;7.72;1.73;;;22.30;99.90;;;;;;7346229;19;110312;-92
2022/07/30 08:25:04;;;;;;;7.95;1.85;;;22.40;99.90;;;;;;7347246;19;109571;-90
2022/07/30 08:27:32;;;;;;;5.57;1.50;;;22.30;99.90;;;;;;7344900;19;109610;-91
2022/07/30 08:30:08;;;;;;;3.60;1.38;;;22.20;99.90;;;;;;7348571;19;110143;-90
2022/07/30 08:32:36;;;;;;;3.20;1.30;;;22.30;99.90;;;;;;7346678;19;109880;-90
2022/07/30 08:35:04;;;;;;;2.72;1.10;;;22.40;99.90;;;;;;7345847;19;110353;-89
2022/07/30 08:37:33;;;;;;;4.28;1.20;;;22.40;99.90;;;;;;7345637;19;110232;-90
2022/07/30 08:40:00;;;;;;;3.78;1.10;;;22.60;99.80;;;;;;7346734;19;110002;-91
2022/07/30 08:42:27;;;;;;;5.30;1.10;;;22.70;99.30;;;;;;7347141;19;111304;-90
2022/07/30 08:44:55;;;;;;;3.15;1.17;;;22.80;99.60;;;;;;7345723;19;110326;-90
2022/07/30 08:47:33;;;;;;;4.13;1.20;;;22.90;99.00;;;;;;7347107;19;110566;-91
2022/07/30 08:50:04;;;;;;;1.92;1.05;;;22.90;98.70;;;;;;7342543;19;111528;-90
2022/07/30 08:52:35;;;;;;;3.97;1.00;;;23.00;99.00;;;;;;7350990;19;109917;-91
2022/07/30 08:55:04;;;;;;;5.28;0.90;;;23.10;98.60;;;;;;7346099;19;110087;-90
2022/07/30 08:57:34;;;;;;;5.97;1.13;;;23.20;98.60;;;;;;7344199;19;109150;-90
2022/07/30 09:00:03;;;;;;;3.88;0.80;;;23.10;97.80;;;;;;7343311;19;110985;-91
2022/07/30 09:02:31;;;;;;;5.45;1.10;;;23.10;98.40;;;;;;7343500;19;111899;-91
2022/07/30 09:04:58;;;;;;;3.45;0.95;;;23.10;97.00;;;;;;7344468;19;109324;-91
2022/07/30 09:07:26;;;;;;;4.30;1.42;;;23.00;97.50;;;;;;7345910;19;110700;-91
2022/07/30 09:09:55;;;;;;;4.00;1.20;;;23.10;97.00;;;;;;7344140;19;111201;-90
2022/07/30 09:12:38;;;;;;;3.22;0.98;;;23.10;97.00;;;;;;7347023;19;109577;-89
2022/07/30 09:15:15;;;;;;;6.55;1.10;;;23.20;97.10;;;;;;7351016;19;110799;-90
2022/07/30 09:17:49;;;;;;;;;;;23.20;97.30;;;;;;7343580;19;109547;-90
2022/07/30 09:20:18;;;;;;;5.10;1.20;;;23.40;96.90;;;;;;7348342;19;109357;-91
2022/07/30 09:22:47;;;;;;;7.18;1.20;;;23.50;96.90;;;;;;7343485;19;112498;-90
2022/07/30 09:25:14;;;;;;;2.90;0.90;;;23.60;96.50;;;;;;7343102;19;109500;-91
2022/07/30 09:27:47;;;;;;;3.92;0.90;;;23.60;96.30;;;;;;7344483;19;109532;-91
2022/07/30 09:30:15;;;;;;;1.98;1.10;;;23.50;95.30;;;;;;7344088;19;109734;-90
2022/07/30 09:32:48;;;;;;;5.38;0.82;;;23.50;95.60;;;;;;7344411;19;109760;-91
2022/07/30 09:35:16;;;;;;;3.22;0.90;;;23.60;96.10;;;;;;7350026;19;110303;-89
2022/07/30 09:37:45;;;;;;;2.80;0.85;;;23.80;96.60;;;;;;7345855;19;109465;-95
2022/07/30 09:40:17;;;;;;;3.78;0.90;;;24.10;96.10;;;;;;7348685;19;109006;-86
2022/07/30 09:42:44;;;;;;;3.08;0.95;;;24.30;95.30;;;;;;7338340;19;112831;-86
2022/07/30 09:45:13;;;;;;;2.75;0.80;;;24.30;94.80;;;;;;7340248;19;109598;-85
2022/07/30 09:47:47;;;;;;;4.03;0.80;;;24.30;95.20;;;;;;7338310;19;109970;-86
2022/07/30 09:50:16;;;;;;;4.30;0.80;;;24.40;95.30;;;;;;7337085;19;111704;-85
2022/07/30 09:53:06;;;;;;;2.78;0.80;;;24.70;95.60;;;;;;7340657;19;110449;-84
2022/07/30 09:55:35;;;;;;;3.38;1.23;;;24.90;95.20;;;;;;7341456;19;110512;-84
2022/07/30 09:58:09;;;;;;;2.60;0.80;;;25.10;95.00;;;;;;7346060;19;113502;-85
2022/07/30 10:00:43;;;;;;;4.63;1.00;;;25.20;95.20;;;;;;7337631;19;110513;-82
2022/07/30 10:03:23;;;;;;;3.33;0.85;;;25.40;95.20;;;;;;7338458;19;110557;-81
2022/07/30 10:06:00;;;;;;;3.95;0.90;;;25.60;95.10;;;;;;7339455;19;109388;-83
2022/07/30 10:08:37;;;;;;;2.05;0.90;;;25.70;95.00;;;;;;7338614;19;110534;-81
2022/07/30 10:11:05;;;;;;;2.97;0.83;;;25.80;94.60;;;;;;7337727;19;110580;-80
2022/07/30 10:13:36;;;;;;;3.10;1.00;;;26.00;93.80;;;;;;7340897;19;109884;-79
2022/07/30 10:16:04;;;;;;;4.70;1.00;;;25.90;92.30;;;;;;7340429;19;110391;-79
2022/07/30 10:18:33;;;;;;;4.82;1.40;;;25.90;93.10;;;;;;7340102;19;111265;-80
2022/07/30 10:21:02;;;;;;;4.00;0.80;;;25.80;92.20;;;;;;7345845;19;110017;-80
2022/07/30 10:23:32;;;;;;;6.50;1.00;;;25.90;93.10;;;;;;7339580;19;110184;-78
2022/07/30 10:26:02;;;;;;;3.95;0.80;;;26.20;93.40;;;;;;7339551;19;110066;-78
2022/07/30 10:28:30;;;;;;;3.65;1.00;;;26.20;91.00;;;;;;7340171;19;110444;-78
2022/07/30 10:31:04;;;;;;;2.15;0.85;;;26.10;91.50;;;;;;7336904;19;110824;-80
2022/07/30 10:33:52;;;;;;;6.38;1.00;;;26.20;91.90;;;;;;7338274;19;110224;-79
2022/07/30 10:36:20;;;;;;;4.00;0.95;;;26.30;91.20;;;;;;7336701;19;109875;-79
2022/07/30 10:38:51;;;;;;;2.55;0.88;;;26.30;91.30;;;;;;7339283;19;111491;-80
2022/07/30 10:41:56;;;;;;;2.33;0.90;;;26.10;91.00;;;;;;7334967;19;109541;-80
2022/07/30 10:44:50;;;;;;;2.05;0.85;;;26.10;91.70;;;;;;7343852;19;109445;-83
2022/07/30 10:47:19;;;;;;;5.15;0.80;;;26.30;92.10;;;;;;7338517;19;109199;-81
2022/07/30 10:50:06;;;;;;;2.33;0.80;;;26.50;92.70;;;;;;7338039;19;110425;-82
2022/07/30 10:53:12;;;;;;;3.65;0.85;;;26.80;92.10;;;;;;7338356;19;110096;-79
2022/07/30 10:55:39;;;;;;;5.43;1.20;;;26.90;91.00;;;;;;7335949;19;109525;-82
2022/07/30 10:58:11;;;;;;;3.10;1.10;;;26.80;90.50;;;;;;7337689;19;111857;-82
2022/07/30 11:00:53;;;;;;;3.58;0.75;;;26.90;91.30;;;;;;7336194;19;111338;-78
2022/07/30 11:03:25;;;;;;;5.60;1.20;;;27.10;89.90;;;;;;7338245;19;109271;-81
2022/07/30 11:06:16;;;;;;;3.58;0.90;;;27.00;89.30;;;;;;7337942;19;109687;-79
2022/07/30 11:08:50;;;;;;;5.55;0.90;;;26.90;88.50;;;;;;7341431;19;110510;-79
2022/07/30 11:11:22;;;;;;;3.58;0.90;;;26.80;90.40;;;;;;7334224;19;110503;-80
2022/07/30 11:14:09;;;;;;;4.05;1.00;;;26.90;89.80;;;;;;7336722;19;113046;-85
2022/07/30 11:16:38;;;;;;;3.03;0.90;;;27.00;90.90;;;;;;7337799;19;109478;-82
2022/07/30 11:19:10;;;;;;;5.57;0.90;;;27.20;91.10;;;;;;7338592;19;110558;-82
2022/07/30 11:22:27;;;;;;;3.30;1.00;;;27.40;91.10;;;;;;7336254;19;114052;-82
2022/07/30 11:24:56;;;;;;;5.80;1.20;;;27.60;91.10;;;;;;7338204;19;110679;-82
2022/07/30 11:27:47;;;;;;;6.28;1.15;;;27.60;91.00;;;;;;7338432;19;109697;-82
2022/07/30 11:30:14;;;;;;;2.55;1.30;;;27.70;90.10;;;;;;7337791;19;111153;-80
2022/07/30 11:32:53;;;;;;;3.53;1.17;;;27.70;90.00;;;;;;7340833;19;109299;-81
2022/07/30 11:35:27;;;;;;;7.85;1.30;;;27.70;89.40;;;;;;7335880;19;110126;-80
2022/07/30 11:38:11;;;;;;;6.88;1.50;;;27.80;90.00;;;;;;7338450;19;109570;-81
2022/07/30 11:41:01;;;;;;;5.57;1.40;;;27.70;87.10;;;;;;7336983;19;110002;-80
2022/07/30 11:43:33;;;;;;;6.05;1.70;;;27.50;87.10;;;;;;7336163;19;111857;-78
2022/07/30 11:46:22;;;;;;;7.15;1.65;;;27.40;87.90;;;;;;7336713;19;109424;-81
2022/07/30 11:49:07;;;;;;;3.35;1.20;;;27.40;88.40;;;;;;7337138;19;110714;-80
2022/07/30 11:51:44;;;;;;;6.93;1.42;;;27.50;89.40;;;;;;7334142;19;112601;-82
2022/07/30 11:54:11;;;;;;;4.82;1.92;;;27.70;90.10;;;;;;7343690;19;109406;-81
2022/07/30 11:56:54;;;;;;;5.82;2.08;;;27.90;90.30;;;;;;7204865;19;115091;-79
2022/07/30 11:59:21;;;;;;;6.55;2.00;;;27.80;86.20;;;;;;7342722;19;109362;-79
2022/07/30 12:01:50;;;;;;;2.85;1.70;;;27.60;87.40;;;;;;7343627;19;110450;-80
2022/07/30 12:04:18;;;;;;;4.80;1.33;;;27.50;87.90;;;;;;7343721;19;111403;-80
2022/07/30 12:06:46;;;;;;;4.38;1.90;;;27.70;88.60;;;;;;7343057;19;111049;-82
2022/07/30 12:09:27;;;;;;;8.68;2.00;;;27.90;90.10;;;;;;7343245;19;110911;-81
2022/07/30 12:12:26;;;;;;;6.60;1.80;;;28.30;90.70;;;;;;7339954;19;110548;-82
2022/07/30 12:14:52;;;;;;;;;;;28.60;89.80;;;;;;7343583;19;109704;-80
2022/07/30 12:17:40;;;;;;;3.75;2.20;;;28.80;87.50;;;;;;7351605;19;109939;-81
2022/07/30 12:20:18;;;;;;;8.32;2.00;;;28.80;87.40;;;;;;7341496;19;109371;-83
2022/07/30 12:22:45;;;;;;;6.15;2.08;;;28.80;88.00;;;;;;7342129;19;111019;-81
2022/07/30 12:25:13;;;;;;;6.38;2.40;;;28.90;88.10;;;;;;7342013;19;110452;-81
2022/07/30 12:27:45;;;;;;;6.85;1.95;;;28.80;85.60;;;;;;7340959;19;109215;-81
2022/07/30 12:30:18;;;;;;;8.13;2.55;;;28.90;86.60;;;;;;7340957;19;110830;-82
2022/07/30 12:32:46;;;;;;;6.93;2.30;;;28.80;84.60;;;;;;7341633;19;110439;-81
2022/07/30 12:35:13;;;;;;;4.95;2.30;;;28.80;85.50;;;;;;7342302;19;109529;-81
2022/07/30 12:38:02;;;;;;;3.67;1.98;;;28.80;85.10;;;;;;7342170;19;110424;-86
2022/07/30 12:40:29;;;;;;;10.35;2.75;;;28.80;85.80;;;;;;7346377;19;110273;-84
2022/07/30 12:42:56;;;;;;;8.95;2.20;;;28.80;85.80;;;;;;7342577;19;110953;-84
2022/07/30 12:45:31;;;;;;;7.70;1.85;;;28.80;86.50;;;;;;7340008;19;110223;-82
2022/07/30 12:48:18;;;;;;;6.55;2.40;;;28.80;85.10;;;;;;7341872;19;109510;-81
2022/07/30 12:50:47;;;;;;;9.93;2.28;;;28.70;86.10;;;;;;7341022;19;109575;-81